createdAt,value
2019-02-16T00:00:58.153Z,14.20
2019-02-16T00:03:29.411Z,14.20
2019-02-16T00:05:58.205Z,14.30
2019-02-16T00:08:28.645Z,14.30
2019-02-16T00:10:59.248Z,14.30
2019-02-16T00:13:28.232Z,14.30
2019-02-16T00:15:56.853Z,14.20
2019-02-16T00:18:25.636Z,14.30
2019-02-16T00:21:03.447Z,14.10
2019-02-16T00:23:24.857Z,14.10
2019-02-16T00:25:53.474Z,14.20
2019-02-16T00:28:22.244Z,14.20
2019-02-16T00:30:51.277Z,13.70
2019-02-16T00:33:24.361Z,14.00
2019-02-16T00:35:55.961Z,14.10
2019-02-16T00:38:24.858Z,14.20
2019-02-16T00:40:53.529Z,13.80
2019-02-16T00:43:23.034Z,13.40
2019-02-16T00:45:53.027Z,13.20
2019-02-16T00:48:24.550Z,13.20
2019-02-16T00:50:55.971Z,13.60
2019-02-16T00:53:27.976Z,13.50
2019-02-16T00:56:00.954Z,13.50
2019-02-16T00:58:29.898Z,13.50
2019-02-16T01:00:58.447Z,13.50
2019-02-16T01:03:28.267Z,13.40
2019-02-16T01:05:58.012Z,13.30
2019-02-16T01:08:26.604Z,13.20
2019-02-16T01:10:55.416Z,13.00
2019-02-16T01:13:24.182Z,13.10
2019-02-16T01:15:52.703Z,12.80
2019-02-16T01:18:21.635Z,13.00
2019-02-16T01:20:50.234Z,12.80
2019-02-16T01:23:18.884Z,12.60
2019-02-16T01:25:47.447Z,12.50
2019-02-16T01:28:16.104Z,12.40
2019-02-16T01:30:46.548Z,12.30
2019-02-16T01:33:15.344Z,11.90
2019-02-16T01:35:46.424Z,11.90
2019-02-16T01:38:15.137Z,11.80
2019-02-16T01:40:43.754Z,11.70
2019-02-16T01:43:13.807Z,11.70
2019-02-16T01:45:42.481Z,11.70
2019-02-16T01:48:11.087Z,11.70
2019-02-16T01:50:41.461Z,11.80
2019-02-16T01:53:10.124Z,12.00
2019-02-16T01:55:39.045Z,12.00
2019-02-16T01:58:09.429Z,12.10
2019-02-16T02:00:38.087Z,12.30
2019-02-16T02:03:06.693Z,12.30
2019-02-16T02:05:35.522Z,12.20
2019-02-16T02:08:04.117Z,12.30
2019-02-16T02:10:32.866Z,12.20
2019-02-16T02:13:02.231Z,11.90
2019-02-16T02:15:31.518Z,12.00
2019-02-16T02:18:00.157Z,12.00
2019-02-16T02:20:29.501Z,11.70
2019-02-16T02:22:58.216Z,11.60
2019-02-16T02:25:30.621Z,11.30
2019-02-16T02:28:01.503Z,11.30
2019-02-16T02:30:30.229Z,11.40
2019-02-16T02:33:00.452Z,11.40
2019-02-16T02:35:29.171Z,11.80
2019-02-16T02:37:57.776Z,11.90
2019-02-16T02:40:26.321Z,11.70
2019-02-16T02:42:55.002Z,11.40
2019-02-16T02:45:23.595Z,11.30
2019-02-16T02:47:53.618Z,11.30
2019-02-16T02:50:22.278Z,11.20
2019-02-16T02:52:52.010Z,11.20
2019-02-16T02:55:20.886Z,11.20
2019-02-16T02:57:49.509Z,11.20
2019-02-16T03:00:18.190Z,11.20
2019-02-16T03:02:46.970Z,11.10
2019-02-16T03:05:15.642Z,11.00
2019-02-16T03:07:44.278Z,11.00
2019-02-16T03:10:12.933Z,11.00
2019-02-16T03:12:41.439Z,11.10
2019-02-16T03:15:12.851Z,11.50
2019-02-16T03:17:43.340Z,11.50
2019-02-16T03:20:11.942Z,11.50
2019-02-16T03:23:00.430Z,11.50
2019-02-16T03:25:29.145Z,11.50
2019-02-16T03:28:25.110Z,11.40
2019-02-16T03:31:13.466Z,11.20
2019-02-16T03:33:47.756Z,11.40
2019-02-16T03:36:37.636Z,11.30
2019-02-16T03:39:12.646Z,11.50
2019-02-16T03:41:41.313Z,11.50
2019-02-16T03:44:10.972Z,11.30
2019-02-16T03:46:41.698Z,11.10
2019-02-16T03:49:12.376Z,11.00
2019-02-16T03:51:42.669Z,11.00
2019-02-16T03:54:11.246Z,10.90
2019-02-16T03:56:43.143Z,10.90
2019-02-16T03:59:11.744Z,10.60
2019-02-16T04:01:40.661Z,10.90
2019-02-16T04:04:09.233Z,11.10
2019-02-16T04:06:37.806Z,11.10
2019-02-16T04:09:07.132Z,11.10
2019-02-16T04:11:35.664Z,11.20
2019-02-16T04:14:04.382Z,10.80
2019-02-16T04:16:32.983Z,10.90
2019-02-16T04:19:02.570Z,11.00
2019-02-16T04:21:31.298Z,11.00
2019-02-16T04:23:59.934Z,10.90
2019-02-16T04:26:29.712Z,10.70
2019-02-16T04:28:58.345Z,10.60
2019-02-16T04:31:26.872Z,10.50
2019-02-16T04:33:55.487Z,10.50
2019-02-16T04:36:24.226Z,10.50
2019-02-16T04:38:54.617Z,10.50
2019-02-16T04:41:23.344Z,10.60
2019-02-16T04:43:51.992Z,10.70
2019-02-16T04:46:21.728Z,10.70
2019-02-16T04:48:50.365Z,10.80
2019-02-16T04:51:18.927Z,10.70
2019-02-16T04:53:47.528Z,10.50
2019-02-16T04:56:16.234Z,10.30
2019-02-16T04:58:44.864Z,10.20
2019-02-16T05:01:14.589Z,10.40
2019-02-16T05:03:46.146Z,10.50
2019-02-16T05:06:14.795Z,10.40
2019-02-16T05:08:44.886Z,10.30
2019-02-16T05:11:14.249Z,10.20
2019-02-16T05:13:42.841Z,10.30
2019-02-16T05:16:11.748Z,10.10
2019-02-16T05:18:40.403Z,10.10
2019-02-16T05:21:10.608Z,9.90
2019-02-16T05:23:39.775Z,10.00
2019-02-16T05:26:11.610Z,9.90
2019-02-16T05:28:40.670Z,9.80
2019-02-16T05:31:09.304Z,9.90
2019-02-16T05:33:38.096Z,9.90
2019-02-16T05:36:07.780Z,10.20
2019-02-16T05:38:36.447Z,10.20
2019-02-16T05:41:04.993Z,10.00
2019-02-16T05:43:33.732Z,10.10
2019-02-16T05:46:02.345Z,10.00
2019-02-16T05:48:30.973Z,10.10
2019-02-16T05:50:59.957Z,10.20
2019-02-16T05:53:28.555Z,10.10
2019-02-16T05:55:57.273Z,10.10
2019-02-16T05:58:25.906Z,10.20
2019-02-16T06:00:54.569Z,10.30
2019-02-16T06:03:27.790Z,10.40
2019-02-16T06:05:56.504Z,10.40
2019-02-16T06:08:26.859Z,10.30
2019-02-16T06:10:55.448Z,10.40
2019-02-16T06:13:24.071Z,10.40
2019-02-16T06:15:52.628Z,10.30
2019-02-16T06:18:21.249Z,10.20
2019-02-16T06:20:50.548Z,10.40
2019-02-16T06:23:21.585Z,10.30
2019-02-16T06:25:53.931Z,10.20
2019-02-16T06:28:28.805Z,10.20
2019-02-16T06:30:59.072Z,10.20
2019-02-16T06:33:27.660Z,10.30
2019-02-16T06:35:59.017Z,10.30
2019-02-16T06:38:28.569Z,10.50
2019-02-16T06:40:58.924Z,10.40
2019-02-16T06:43:27.546Z,10.30
2019-02-16T06:45:56.227Z,10.30
2019-02-16T06:48:24.719Z,10.30
2019-02-16T06:50:53.258Z,10.60
2019-02-16T06:53:21.761Z,10.50
2019-02-16T06:55:51.941Z,10.60
2019-02-16T06:58:20.449Z,10.60
2019-02-16T07:00:49.051Z,10.60
2019-02-16T07:03:17.551Z,10.60
2019-02-16T07:05:46.421Z,10.60
2019-02-16T07:08:14.914Z,10.50
2019-02-16T07:10:45.137Z,10.70
2019-02-16T07:13:13.725Z,11.10
2019-02-16T07:15:44.236Z,11.10
2019-02-16T07:18:17.314Z,11.00
2019-02-16T07:20:45.875Z,10.90
2019-02-16T07:23:22.303Z,11.10
2019-02-16T07:25:46.250Z,11.30
2019-02-16T07:28:16.086Z,11.50
2019-02-16T07:30:44.726Z,11.40
2019-02-16T07:33:13.352Z,11.50
2019-02-16T07:35:42.089Z,11.50
2019-02-16T07:38:10.691Z,11.80
2019-02-16T07:40:40.350Z,11.90
2019-02-16T07:43:10.501Z,12.00
2019-02-16T07:45:40.885Z,12.00
2019-02-16T07:48:14.205Z,12.10
2019-02-16T07:50:44.726Z,12.30
2019-02-16T07:53:32.974Z,12.30
2019-02-16T07:56:11.199Z,12.40
2019-02-16T07:58:46.816Z,12.40
2019-02-16T08:01:17.199Z,12.60
2019-02-16T08:03:50.549Z,12.70
2019-02-16T08:06:27.206Z,13.00
2019-02-16T08:09:06.996Z,13.00
2019-02-16T08:11:43.256Z,13.10
2019-02-16T08:14:31.721Z,13.30
2019-02-16T08:17:01.931Z,13.30
2019-02-16T08:19:32.138Z,13.30
2019-02-16T08:22:19.592Z,13.20
2019-02-16T08:25:08.064Z,13.40
2019-02-16T08:27:54.699Z,13.60
2019-02-16T08:30:25.049Z,13.40
2019-02-16T08:32:58.304Z,13.40
2019-02-16T08:35:44.822Z,13.80
2019-02-16T08:38:17.708Z,14.10
2019-02-16T08:40:47.988Z,14.50
2019-02-16T08:43:18.322Z,14.60
2019-02-16T08:45:52.303Z,14.20
2019-02-16T08:48:35.221Z,13.90
2019-02-16T08:51:20.576Z,14.10
2019-02-16T08:54:03.131Z,14.20
2019-02-16T08:56:45.827Z,14.20
2019-02-16T08:59:31.749Z,14.10
2019-02-16T09:02:02.317Z,14.40
2019-02-16T09:04:35.515Z,15.00
2019-02-16T09:07:05.995Z,15.10
2019-02-16T09:09:36.557Z,15.20
2019-02-16T09:12:16.075Z,15.30
2019-02-16T09:15:05.118Z,15.10
2019-02-16T09:17:35.915Z,15.20
2019-02-16T09:20:13.758Z,15.30
2019-02-16T09:22:56.325Z,15.30
2019-02-16T09:25:39.041Z,15.80
2019-02-16T09:28:26.075Z,15.90
2019-02-16T09:31:06.716Z,16.20
2019-02-16T09:33:47.755Z,16.30
2019-02-16T09:36:30.155Z,16.40
2019-02-16T09:39:01.835Z,16.40
2019-02-16T09:41:32.227Z,16.60
2019-02-16T09:44:05.595Z,16.90
2019-02-16T09:46:38.650Z,16.80
2019-02-16T09:49:12.386Z,16.90
2019-02-16T09:51:45.603Z,17.10
2019-02-16T09:54:21.929Z,17.60
2019-02-16T09:56:57.333Z,18.60
2019-02-16T09:59:42.891Z,20.80
2019-02-16T10:02:29.575Z,23.50
2019-02-16T10:05:00.210Z,26.50
2019-02-16T10:07:47.211Z,28.80
2019-02-16T10:10:21.605Z,30.40
2019-02-16T10:13:10.834Z,32.00
2019-02-16T10:15:47.246Z,32.90
2019-02-16T10:18:34.105Z,34.00
2019-02-16T10:21:14.524Z,34.90
2019-02-16T10:24:01.308Z,35.70
2019-02-16T10:26:31.915Z,36.40
2019-02-16T10:29:05.397Z,36.90
2019-02-16T10:31:39.196Z,36.90
2019-02-16T10:34:15.472Z,37.20
2019-02-16T10:37:02.250Z,37.60
2019-02-16T10:39:35.422Z,38.00
2019-02-16T10:42:06.225Z,37.90
2019-02-16T10:44:46.823Z,37.70
2019-02-16T10:47:23.626Z,37.80
2019-02-16T10:50:02.378Z,37.90
2019-02-16T10:52:32.633Z,38.10
2019-02-16T10:55:12.072Z,38.20
2019-02-16T10:57:42.674Z,38.30
2019-02-16T11:00:13.049Z,38.50
2019-02-16T11:02:48.766Z,38.50
2019-02-16T11:05:20.660Z,38.50
2019-02-16T11:07:54.417Z,38.50
2019-02-16T11:10:24.715Z,38.10
2019-02-16T11:12:57.988Z,37.80
2019-02-16T11:15:31.004Z,37.70
2019-02-16T11:18:07.098Z,37.50
2019-02-16T11:20:43.131Z,37.50
2019-02-16T11:23:22.360Z,37.30
2019-02-16T11:25:52.547Z,36.90
2019-02-16T11:28:41.197Z,36.60
2019-02-16T11:31:14.519Z,36.20
2019-02-16T11:33:59.822Z,35.60
2019-02-16T11:36:42.717Z,35.20
2019-02-16T11:39:13.169Z,34.50
2019-02-16T11:41:43.561Z,33.70
2019-02-16T11:44:13.769Z,32.90
2019-02-16T11:46:53.193Z,32.00
2019-02-16T11:49:23.639Z,30.90
2019-02-16T11:51:53.907Z,29.90
2019-02-16T11:54:33.430Z,29.00
2019-02-16T11:57:14.311Z,28.00
2019-02-16T11:59:50.102Z,27.30
2019-02-16T12:02:23.337Z,26.60
2019-02-16T12:04:53.793Z,26.10
2019-02-16T12:07:33.228Z,25.50
2019-02-16T12:10:09.629Z,25.10
2019-02-16T12:12:45.713Z,25.10
2019-02-16T12:15:37.554Z,24.80
2019-02-16T12:18:21.969Z,24.70
2019-02-16T12:20:57.333Z,24.60
2019-02-16T12:26:44.215Z,24.60
2019-02-16T12:29:32.015Z,24.70
2019-02-16T12:32:18.574Z,24.60
2019-02-16T12:34:51.695Z,24.70
2019-02-16T12:37:29.454Z,24.50
2019-02-16T12:40:03.335Z,24.20
2019-02-16T12:42:50.222Z,24.20
2019-02-16T12:45:36.615Z,24.20
2019-02-16T12:48:12.713Z,24.10
2019-02-16T12:50:45.736Z,24.30
2019-02-16T12:53:16.054Z,24.30
2019-02-16T12:55:58.374Z,24.20
2019-02-16T12:58:32.217Z,24.40
2019-02-16T13:01:05.534Z,24.40
2019-02-16T13:03:47.495Z,24.00
2019-02-16T13:06:20.727Z,23.80
2019-02-16T13:08:56.697Z,23.70
2019-02-16T13:11:29.669Z,23.50
2019-02-16T13:14:06.007Z,23.70
2019-02-16T13:16:39.172Z,23.90
2019-02-16T13:19:13.222Z,24.20
2019-02-16T13:21:47.200Z,24.10
2019-02-16T13:24:29.559Z,24.00
2019-02-16T13:27:19.288Z,24.10
2019-02-16T13:29:58.490Z,24.50
2019-02-16T13:32:31.778Z,24.70
2019-02-16T13:35:20.358Z,24.30
2019-02-16T13:37:56.598Z,24.20
2019-02-16T13:40:36.134Z,24.30
2019-02-16T13:43:09.433Z,24.40
2019-02-16T13:45:48.757Z,24.40
2019-02-16T13:48:31.150Z,24.60
2019-02-16T13:51:01.891Z,24.60
2019-02-16T13:53:35.362Z,24.40
2019-02-16T13:56:14.658Z,24.30
2019-02-16T13:59:04.164Z,24.50
2019-02-16T14:01:34.604Z,24.60
2019-02-16T14:04:17.324Z,24.50
2019-02-16T14:06:47.811Z,24.20
2019-02-16T14:09:19.972Z,24.10
2019-02-16T14:11:52.554Z,24.10
2019-02-16T14:14:33.727Z,24.00
2019-02-16T14:17:15.683Z,24.00
2019-02-16T14:19:44.484Z,24.00
2019-02-16T14:22:13.245Z,23.90
2019-02-16T14:24:46.563Z,23.90
2019-02-16T14:27:15.403Z,23.90
2019-02-16T14:29:44.123Z,24.10
2019-02-16T14:32:12.883Z,23.90
2019-02-16T14:34:44.603Z,24.00
2019-02-16T14:37:22.484Z,24.00
2019-02-16T14:39:52.643Z,24.10
2019-02-16T14:42:26.883Z,23.80
2019-02-16T14:44:55.645Z,23.50
2019-02-16T14:47:29.404Z,23.50
2019-02-16T14:49:58.203Z,23.50
2019-02-16T14:52:27.506Z,23.50
2019-02-16T14:54:56.440Z,23.50
2019-02-16T14:57:25.400Z,23.70
2019-02-16T14:59:54.320Z,23.70
2019-02-16T15:02:25.568Z,24.00
2019-02-16T15:04:55.850Z,24.10
2019-02-16T15:07:25.124Z,24.00
2019-02-16T15:09:54.183Z,24.00
2019-02-16T15:12:23.764Z,24.10
2019-02-16T15:14:54.547Z,24.00
2019-02-16T15:17:23.233Z,23.80
2019-02-16T15:19:52.058Z,23.80
2019-02-16T15:22:21.106Z,23.60
2019-02-16T15:24:50.190Z,23.70
2019-02-16T15:27:24.325Z,23.60
2019-02-16T15:29:53.135Z,23.50
2019-02-16T15:32:21.843Z,23.70
2019-02-16T15:34:50.535Z,23.90
2019-02-16T15:37:19.213Z,24.10
2019-02-16T15:39:47.893Z,24.20
2019-02-16T15:42:16.482Z,24.10
2019-02-16T15:44:45.265Z,24.00
2019-02-16T15:47:14.053Z,24.00
2019-02-16T15:49:42.555Z,23.70
2019-02-16T15:52:11.302Z,23.80
2019-02-16T15:54:39.893Z,23.70
2019-02-16T15:57:08.493Z,23.70
2019-02-16T15:59:37.099Z,23.50
2019-02-16T16:02:08.355Z,23.30
2019-02-16T16:04:40.306Z,23.30
2019-02-16T16:07:12.637Z,23.20
2019-02-16T16:09:43.251Z,23.10
2019-02-16T16:12:22.947Z,23.10
2019-02-16T16:14:53.534Z,23.10
2019-02-16T16:17:29.696Z,23.20
2019-02-16T16:20:07.109Z,23.20
2019-02-16T16:22:43.428Z,23.10
2019-02-16T16:25:15.271Z,23.10
2019-02-16T16:27:45.827Z,23.00
2019-02-16T16:30:22.662Z,23.10
2019-02-16T16:33:05.358Z,23.10
2019-02-16T16:35:44.839Z,23.20
2019-02-16T16:38:15.087Z,23.10
2019-02-16T16:40:51.501Z,23.10
2019-02-16T16:43:28.163Z,23.10
2019-02-16T16:46:15.059Z,23.10
2019-02-16T16:49:02.052Z,23.10
2019-02-16T16:51:32.519Z,23.00
2019-02-16T16:54:12.183Z,22.90
2019-02-16T16:56:42.736Z,22.70
2019-02-16T16:59:13.169Z,22.60
2019-02-16T17:01:43.684Z,22.40
2019-02-16T17:04:25.800Z,22.40
2019-02-16T17:06:56.353Z,22.20
2019-02-16T17:09:26.780Z,21.90
2019-02-16T17:12:13.878Z,21.90
2019-02-16T17:14:44.411Z,21.80
2019-02-16T17:17:29.707Z,21.90
2019-02-16T17:20:15.293Z,21.90
2019-02-16T17:22:51.544Z,21.90
2019-02-16T17:25:32.855Z,21.90
2019-02-16T17:28:03.714Z,21.90
2019-02-16T17:30:34.946Z,21.80
2019-02-16T17:33:08.988Z,21.70
2019-02-16T17:35:42.587Z,21.60
2019-02-16T17:38:25.269Z,21.60
2019-02-16T17:41:14.487Z,21.40
2019-02-16T17:43:50.331Z,21.40
2019-02-16T17:46:30.090Z,21.20
2019-02-16T17:49:16.851Z,21.30
2019-02-16T17:52:03.726Z,21.20
2019-02-16T17:54:34.211Z,21.20
2019-02-16T17:57:20.934Z,21.20
2019-02-16T17:59:51.508Z,21.30
2019-02-16T18:02:26.417Z,21.40
2019-02-16T18:04:57.258Z,21.30
2019-02-16T18:07:46.603Z,21.40
2019-02-16T18:13:03.676Z,21.10
2019-02-16T18:15:51.150Z,21.00
2019-02-16T18:18:27.595Z,21.10
2019-02-16T18:21:15.315Z,21.00
2019-02-16T18:24:02.618Z,20.80
2019-02-16T18:26:42.827Z,20.80
2019-02-16T18:29:22.120Z,20.70
2019-02-16T18:31:55.758Z,20.60
2019-02-16T18:34:35.577Z,20.60
2019-02-16T18:37:12.154Z,20.70
2019-02-16T18:40:01.151Z,20.40
2019-02-16T18:42:37.838Z,20.50
2019-02-16T18:45:12.901Z,20.50
2019-02-16T18:48:03.643Z,20.60
2019-02-16T18:50:49.275Z,20.60
2019-02-16T22:08:31.550Z,19.00
2019-02-16T22:11:07.495Z,19.10
2019-02-16T22:13:36.296Z,19.10
2019-02-16T22:16:05.196Z,19.10
2019-02-16T22:18:33.948Z,19.10
2019-02-16T22:21:02.847Z,18.90
2019-02-16T22:23:31.644Z,18.80
2019-02-16T22:26:00.636Z,18.80
2019-02-16T22:28:31.304Z,18.50
2019-02-16T22:31:00.149Z,18.20
2019-02-16T22:33:28.947Z,18.20
2019-02-16T22:35:57.771Z,18.40
2019-02-16T22:38:29.684Z,18.50
2019-02-16T22:40:58.732Z,18.40
2019-02-16T22:43:27.613Z,18.40
2019-02-16T22:45:56.239Z,18.30
2019-02-16T22:48:24.935Z,18.30
2019-02-16T22:50:53.939Z,18.30
2019-02-16T22:53:22.832Z,18.50
2019-02-16T22:55:51.579Z,18.50
2019-02-16T22:58:28.561Z,18.70
2019-02-16T23:00:51.330Z,18.70
2019-02-16T23:03:20.007Z,18.70
2019-02-16T23:05:48.877Z,18.90
2019-02-16T23:08:17.789Z,18.70
2019-02-16T23:10:48.180Z,18.70
2019-02-16T23:13:17.030Z,18.70
2019-02-16T23:15:45.823Z,18.80
2019-02-16T23:18:14.652Z,18.70
2019-02-16T23:20:43.275Z,18.80
2019-02-16T23:23:12.223Z,18.70
2019-02-16T23:25:40.959Z,18.80
2019-02-16T23:28:09.797Z,18.80
2019-02-16T23:30:38.730Z,18.70
2019-02-16T23:33:07.490Z,18.60
2019-02-16T23:35:36.211Z,18.50
2019-02-16T23:38:23.531Z,18.60
2019-02-16T23:40:52.194Z,18.40
2019-02-16T23:43:21.108Z,18.30
2019-02-16T23:45:50.188Z,18.30
2019-02-16T23:48:19.032Z,18.40
2019-02-16T23:50:47.541Z,18.20
2019-02-16T23:53:16.330Z,18.20
2019-02-16T23:55:45.223Z,18.10
2019-02-16T23:58:13.900Z,18.00
